Time;durP1;ratioP1;P1;durP2;ratioP2;P2;SDS_P1;SDS_P2;PMS_P1;PMS_P2;Temp;Humidity;BMP_temperature;BMP_pressure;BME280_temperature;BME280_humidity;BME280_pressure;Samples;Min_cycle;Max_cycle;Signal;HPM_P1;HPM_P2
2024/03/12 00:00:40;;;;;;;15.13;12.57;;;6.90;99.90;;;-141.84;88.75;64650.94;5020016;28;20284;-47
2024/03/12 00:03:09;;;;;;;14.40;12.10;;;6.80;99.90;;;-141.84;89.91;69389.94;5017271;28;20234;-50
2024/03/12 00:05:38;;;;;;;17.47;12.00;;;6.80;99.90;;;-141.84;89.82;69916.81;5020146;28;20222;-50
2024/03/12 00:08:11;;;;;;;14.07;12.17;;;6.80;99.90;;;-141.84;90.38;71497.94;5022612;28;20230;-51
2024/03/12 00:10:39;;;;;;;14.47;12.33;;;6.70;99.90;;;-141.84;91.44;75717.34;5011655;28;20325;-53
2024/03/12 00:13:09;;;;;;;13.70;11.87;;;6.60;99.90;;;-141.84;92.41;79677.06;5024958;28;20231;-51
2024/03/12 00:15:37;;;;;;;14.23;12.37;;;6.60;99.90;;;-141.84;92.83;80997.84;5021230;28;20195;-49
2024/03/12 00:18:06;;;;;;;16.13;12.90;;;6.60;99.90;;;-141.84;92.21;78620.75;5027769;28;20209;-50
2024/03/12 00:20:34;;;;;;;14.57;12.47;;;6.60;99.90;;;-141.84;93.28;81526.28;5020787;28;20644;-53
2024/03/12 00:23:05;;;;;;;14.53;12.80;;;6.50;99.90;;;-141.84;94.08;84698.34;5017297;28;20241;-50
2024/03/12 00:25:37;;;;;;;16.00;12.77;;;6.40;99.90;;;-141.84;95.13;87608.25;5046177;28;20306;-56
2024/03/12 00:28:08;;;;;;;15.93;13.33;;;6.40;99.90;;;-141.84;95.94;89990.66;5051820;28;20260;-48
2024/03/12 00:30:40;;;;;;;17.47;13.87;;;6.30;99.90;;;-141.84;96.93;92374.47;5051738;28;20186;-53
2024/03/12 00:33:10;;;;;;;16.33;14.00;;;6.30;99.90;;;-141.84;97.14;93434.41;5051778;28;20602;-51
2024/03/12 00:35:42;;;;;;;14.57;12.97;;;6.30;99.90;;;-141.84;96.64;92109.53;5024746;28;20313;-52
2024/03/12 00:38:11;;;;;;;16.37;13.53;;;6.30;99.90;;;-141.84;97.12;92904.41;5022434;28;20698;-50
2024/03/12 00:40:42;;;;;;;15.27;13.27;;;6.20;99.90;;;-141.84;97.85;94759.69;5015193;28;20237;-53
2024/03/12 00:43:11;;;;;;;15.67;13.10;;;6.20;99.90;;;-141.84;98.38;95820.25;5019455;28;20250;-52
2024/03/12 00:45:41;;;;;;;16.43;12.80;;;6.20;99.90;;;-141.84;97.86;95555.09;5020421;28;20234;-52
2024/03/12 00:48:13;;;;;;;15.30;13.17;;;6.10;99.90;;;-141.84;98.17;95555.09;5021710;28;20202;-54
2024/03/12 00:50:45;;;;;;;16.73;13.97;;;6.10;99.90;;;-141.84;98.73;97146.31;5015029;28;20221;-48
2024/03/12 00:53:14;;;;;;;14.97;12.83;;;6.10;99.90;;;-141.84;99.70;98738.19;5018806;28;20308;-50
2024/03/12 00:55:47;;;;;;;15.67;13.03;;;6.10;99.90;;;-141.84;99.61;99268.97;5018777;28;20296;-51
2024/03/12 00:58:19;;;;;;;15.23;12.97;;;6.10;99.90;;;-141.84;98.94;97411.59;5016535;28;20630;-51
2024/03/12 01:00:48;;;;;;;15.57;12.93;;;6.00;99.90;;;-141.84;98.93;97411.59;5019335;28;20191;-49
2024/03/12 01:03:17;;;;;;;14.13;12.47;;;6.00;99.90;;;-141.84;99.18;97411.59;5020093;28;20210;-49
2024/03/12 01:05:46;;;;;;;13.60;12.20;;;5.90;99.90;;;-141.84;99.25;98207.50;5021242;28;20222;-52
2024/03/12 01:08:16;;;;;;;14.23;12.60;;;5.90;99.90;;;-141.84;99.73;99268.97;5021944;28;20291;-52
2024/03/12 01:10:47;;;;;;;14.37;12.73;;;5.90;99.90;;;-141.84;100.00;100065.22;5021787;28;20317;-54
2024/03/12 01:13:20;;;;;;;15.47;13.27;;;5.90;99.90;;;-141.84;99.92;100330.69;5026527;28;20224;-60
2024/03/12 01:15:52;;;;;;;17.33;13.40;;;5.90;99.90;;;-141.84;100.00;100596.16;5021864;28;20225;-59
2024/03/12 01:18:21;;;;;;;14.77;13.27;;;5.80;99.90;;;-141.84;100.00;100861.66;5020793;28;20198;-60
2024/03/12 01:20:49;;;;;;;14.97;13.10;;;5.80;99.90;;;-141.84;99.39;98738.19;5019161;28;20699;-61
2024/03/12 01:23:17;;;;;;;15.03;13.00;;;5.80;99.90;;;-141.84;98.85;97146.31;5023322;28;20716;-61
2024/03/12 01:25:47;;;;;;;15.17;12.87;;;5.90;99.90;;;-141.84;98.12;95820.25;5023510;28;20238;-60
2024/03/12 01:28:18;;;;;;;16.20;13.53;;;5.90;99.90;;;-141.84;98.00;95555.09;5023258;28;20230;-59
2024/03/12 01:30:46;;;;;;;16.70;13.03;;;5.90;99.90;;;-141.84;98.00;95289.94;5023443;28;20513;-59
2024/03/12 01:33:14;;;;;;;15.73;12.77;;;6.00;99.90;;;-141.84;96.49;92109.53;5026519;28;20200;-59
2024/03/12 01:35:46;;;;;;;14.33;12.67;;;5.90;99.90;;;-141.84;95.91;90255.47;5025715;28;20582;-60
2024/03/12 01:38:15;;;;;;;15.27;13.20;;;5.90;99.90;;;-141.84;92.60;80205.34;5024492;28;20229;-59
2024/03/12 01:40:43;;;;;;;16.30;12.93;;;6.00;99.90;;;-141.84;91.21;74134.56;5019025;28;20261;-60
2024/03/12 01:43:13;;;;;;;18.53;16.53;;;6.00;99.90;;;-141.84;93.32;80997.84;5027013;28;20284;-59
2024/03/12 01:45:43;;;;;;;18.07;15.73;;;6.00;99.90;;;-141.84;93.94;83640.72;5024953;28;20598;-59
2024/03/12 01:48:11;;;;;;;16.60;13.53;;;6.00;99.90;;;-141.84;92.31;78884.81;5033591;28;20205;-59
2024/03/12 01:50:41;;;;;;;14.10;12.60;;;5.90;99.90;;;-141.84;93.13;80733.66;5025517;28;20253;-60
2024/03/12 01:53:10;;;;;;;16.83;14.10;;;5.90;99.90;;;-141.84;94.62;85491.75;5028256;28;20286;-60
2024/03/12 01:55:42;;;;;;;15.57;13.10;;;5.90;99.90;;;-141.84;95.70;88137.56;5022679;28;20234;-60
2024/03/12 01:58:17;;;;;;;14.27;12.73;;;5.80;99.90;;;-141.84;93.84;84433.91;5023726;28;20238;-61
2024/03/12 02:00:45;;;;;;;15.53;13.80;;;5.90;99.90;;;-141.84;92.43;79412.97;5022636;28;20288;-59
2024/03/12 02:03:18;;;;;;;14.77;12.77;;;5.90;99.90;;;-141.84;92.28;78620.75;5025758;28;20200;-60
2024/03/12 02:05:47;;;;;;;17.20;13.97;;;5.90;99.90;;;-141.84;90.78;73870.81;5015141;28;20237;-59
2024/03/12 02:08:16;;;;;;;16.13;14.00;;;6.10;99.90;;;-141.84;91.07;73343.38;5027331;28;20222;-60
2024/03/12 02:10:45;;;;;;;15.90;13.43;;;6.00;99.90;;;-141.84;92.35;77300.78;5031314;28;20232;-60
2024/03/12 02:13:15;;;;;;;17.40;13.10;;;5.90;99.90;;;-141.84;93.49;82054.78;5026757;28;20222;-59
2024/03/12 02:15:43;;;;;;;19.10;13.77;;;5.90;99.90;;;-141.84;93.47;81790.53;5022755;28;20261;-59
2024/03/12 02:18:12;;;;;;;17.87;14.43;;;5.90;99.90;;;-141.84;93.81;83376.34;5030919;28;20983;-60
2024/03/12 02:20:40;;;;;;;17.60;13.23;;;5.80;99.90;;;-141.84;93.21;81790.53;5021470;28;20301;-60
2024/03/12 02:23:08;;;;;;;15.33;13.03;;;5.80;99.90;;;-141.84;93.76;82847.66;5021275;28;20237;-59
2024/03/12 02:25:38;;;;;;;15.90;12.93;;;5.80;99.90;;;-141.84;95.72;88137.56;5022645;28;20258;-61
2024/03/12 02:28:07;;;;;;;16.00;12.93;;;5.70;99.90;;;-141.84;97.12;92639.44;5022425;28;20551;-60
2024/03/12 02:30:35;;;;;;;15.10;13.43;;;5.70;99.90;;;-141.84;98.03;94759.69;5022175;28;20651;-60
2024/03/12 02:33:04;;;;;;;16.33;13.30;;;5.70;99.90;;;-141.84;99.08;97146.31;5024817;28;20198;-61
2024/03/12 02:35:34;;;;;;;15.83;13.20;;;5.60;99.90;;;-141.84;99.82;99268.97;5024692;28;20218;-59
2024/03/12 02:38:03;;;;;;;15.57;13.33;;;5.60;99.90;;;-141.84;100.00;100861.66;5024905;28;20221;-61
2024/03/12 02:40:33;;;;;;;16.03;12.80;;;5.50;99.90;;;-141.84;100.00;101923.81;5022423;28;20250;-60
2024/03/12 02:43:03;;;;;;;14.97;13.40;;;5.60;99.90;;;-141.84;100.00;102189.38;5026027;28;20285;-60
2024/03/12 02:45:32;;;;;;;15.33;13.00;;;5.50;99.90;;;-141.84;100.00;102189.38;5030472;28;20650;-59
2024/03/12 02:48:04;;;;;;;15.50;12.80;;;5.50;99.90;;;-141.84;100.00;102455.00;5023292;28;20211;-61
2024/03/12 02:50:33;;;;;;;16.73;13.50;;;5.50;99.90;;;-141.84;99.43;99003.56;5021301;28;20794;-59
2024/03/12 02:53:01;;;;;;;14.73;13.17;;;5.50;99.90;;;-141.84;99.09;97146.31;5022232;28;20316;-62
2024/03/12 02:55:29;;;;;;;20.37;15.33;;;5.50;99.90;;;-141.84;97.60;94759.69;5026726;28;20281;-60
2024/03/12 02:57:58;;;;;;;18.53;16.63;;;5.50;99.90;;;-141.84;96.56;91844.63;5024611;28;20746;-60
2024/03/12 03:00:28;;;;;;;18.50;16.43;;;5.50;99.90;;;-141.84;94.83;87079.03;5022492;28;20289;-61
2024/03/12 03:02:57;;;;;;;18.23;16.33;;;5.60;99.90;;;-141.84;93.85;82583.34;5048220;28;20237;-60
2024/03/12 03:05:25;;;;;;;17.53;15.43;;;5.60;99.90;;;-141.84;94.74;84962.78;5028701;28;20225;-60
2024/03/12 03:07:54;;;;;;;16.90;15.10;;;5.60;99.90;;;-141.84;95.83;88402.22;5024560;28;20295;-60
2024/03/12 03:10:22;;;;;;;16.33;14.63;;;5.50;99.90;;;-141.84;96.68;91314.81;5024065;28;20317;-60
2024/03/12 03:12:51;;;;;;;16.60;13.90;;;5.40;99.90;;;-141.84;95.99;89990.66;5024546;28;20261;-60
2024/03/12 03:15:20;;;;;;;19.27;14.90;;;5.50;99.90;;;-141.84;96.19;89461.13;5024801;28;20210;-60
2024/03/12 03:17:50;;;;;;;17.27;14.33;;;5.60;99.90;;;-141.84;97.08;91844.63;5023913;28;20246;-60
2024/03/12 03:20:18;;;;;;;14.70;13.17;;;5.40;99.90;;;-141.84;97.69;93699.44;5022343;28;20233;-60
2024/03/12 03:22:46;;;;;;;15.20;13.43;;;5.40;99.90;;;-141.84;98.10;95024.81;5021602;28;20250;-60
2024/03/12 03:25:15;;;;;;;13.87;12.17;;;5.30;99.90;;;-141.84;97.73;93699.44;5021511;28;20231;-60
2024/03/12 03:27:43;;;;;;;13.97;12.30;;;5.30;99.90;;;-141.84;97.82;93964.47;5023639;28;20209;-62
2024/03/12 03:30:17;;;;;;;14.20;12.77;;;5.30;99.90;;;-141.84;98.59;95555.09;5024781;28;20198;-59
2024/03/12 03:32:47;;;;;;;14.47;12.50;;;5.30;99.90;;;-141.84;98.74;96085.44;5022869;28;20708;-60
2024/03/12 03:35:19;;;;;;;13.40;11.63;;;5.20;99.90;;;-141.84;98.79;96881.06;4992104;28;20226;-60
2024/03/12 03:37:47;;;;;;;12.67;10.93;;;5.20;99.90;;;-141.84;98.85;96085.44;5042774;28;20221;-60
2024/03/12 03:40:22;;;;;;;13.27;11.87;;;5.20;99.90;;;-141.84;98.78;96615.84;5045373;28;20229;-60
2024/03/12 03:42:53;;;;;;;14.43;11.73;;;5.30;99.90;;;-141.84;98.25;95289.94;5023287;28;20317;-59
2024/03/12 03:45:21;;;;;;;14.30;11.63;;;5.20;99.90;;;-141.84;97.41;93699.44;5026096;28;20198;-60
2024/03/12 03:47:50;;;;;;;12.73;11.07;;;5.20;99.90;;;-141.84;97.02;91844.63;5020810;28;20698;-61
2024/03/12 03:50:19;;;;;;;14.60;11.77;;;5.20;99.90;;;-141.84;97.42;92374.47;5020926;28;20237;-60
2024/03/12 03:52:48;;;;;;;14.37;12.17;;;5.20;99.90;;;-141.84;97.76;93434.41;5021552;28;20317;-59
2024/03/12 03:55:17;;;;;;;13.23;11.30;;;5.20;99.90;;;-141.84;97.40;93169.38;5023237;28;20222;-60
2024/03/12 03:57:47;;;;;;;15.20;11.60;;;5.10;99.90;;;-141.84;95.45;88402.22;5024509;28;20234;-58
2024/03/12 04:00:19;;;;;;;12.27;10.70;;;5.20;99.90;;;-141.84;93.67;82054.78;5023509;28;20202;-59
2024/03/12 04:02:48;;;;;;;12.50;11.10;;;5.20;99.90;;;-141.84;92.43;77300.78;5022816;28;20301;-59
2024/03/12 04:05:19;;;;;;;11.80;10.50;;;5.20;99.90;;;-141.84;91.93;75717.34;5013728;28;20241;-60
2024/03/12 04:07:48;;;;;;;12.37;11.07;;;5.20;99.90;;;-141.84;91.83;74662.09;5033968;28;20229;-60
2024/03/12 04:10:17;;;;;;;13.37;11.17;;;5.20;99.90;;;-141.84;92.21;76508.97;5050499;28;20733;-61
2024/03/12 04:12:46;;;;;;;12.90;10.60;;;5.20;99.90;;;-141.84;92.68;77828.72;5046620;28;20237;-58
2024/03/12 04:15:16;;;;;;;14.57;11.47;;;5.10;99.90;;;-141.84;93.96;81790.53;5052615;28;20201;-59
2024/03/12 04:17:44;;;;;;;13.67;12.17;;;5.10;99.90;;;-141.84;95.06;86020.75;5052119;28;20263;-59
2024/03/12 04:20:16;;;;;;;13.90;12.43;;;5.10;99.90;;;-141.84;95.94;88666.94;5028484;28;20237;-60
2024/03/12 04:22:46;;;;;;;14.53;13.03;;;5.00;99.90;;;-141.84;96.69;90255.47;5023187;28;20300;-62
2024/03/12 04:25:17;;;;;;;12.70;11.27;;;5.00;99.90;;;-141.84;97.89;93434.41;5022635;28;20245;-60
2024/03/12 04:27:46;;;;;;;13.97;12.03;;;5.00;99.90;;;-141.84;97.75;93964.47;5026019;28;20557;-62
2024/03/12 04:30:15;;;;;;;15.20;11.70;;;5.00;99.90;;;-141.84;96.84;91314.81;5021384;28;20205;-66
2024/03/12 04:32:45;;;;;;;14.20;11.13;;;5.00;99.90;;;-141.84;97.89;92904.41;5020194;28;20877;-60
2024/03/12 04:35:13;;;;;;;14.90;12.03;;;4.90;99.90;;;-141.84;97.37;93169.38;5022380;28;20221;-60
2024/03/12 04:37:42;;;;;;;15.57;12.87;;;4.90;99.90;;;-141.84;96.19;89725.88;5025444;28;20237;-60
2024/03/12 04:40:12;;;;;;;15.20;13.37;;;4.90;99.90;;;-141.84;96.28;88931.63;5021108;28;20230;-64
2024/03/12 04:42:43;;;;;;;14.63;12.77;;;4.80;99.90;;;-141.84;97.92;92904.41;5024195;28;20248;-61
2024/03/12 04:45:12;;;;;;;17.00;13.67;;;4.80;99.90;;;-141.84;99.21;96615.84;5023508;28;20248;-60
2024/03/12 04:47:40;;;;;;;14.57;13.07;;;4.70;99.90;;;-141.84;99.35;97411.59;5021690;28;20261;-59
2024/03/12 04:50:13;;;;;;;15.60;13.03;;;4.70;99.90;;;-141.84;98.81;96085.44;5021663;28;20608;-60
2024/03/12 04:52:42;;;;;;;15.93;12.80;;;4.70;99.90;;;-141.84;99.08;96615.84;5021635;28;20225;-60
2024/03/12 04:55:13;;;;;;;14.87;12.37;;;4.70;99.90;;;-141.84;99.32;96881.06;5019646;28;20305;-60
2024/03/12 04:57:41;;;;;;;15.70;12.97;;;4.60;99.90;;;-141.84;99.55;97942.19;5018290;28;20209;-61
2024/03/12 05:00:14;;;;;;;14.03;12.53;;;4.70;99.90;;;-141.84;99.57;97411.59;5021642;28;20259;-62
2024/03/12 05:02:44;;;;;;;16.70;13.73;;;4.60;99.90;;;-141.84;98.34;95024.81;5021004;28;20221;-59
2024/03/12 05:05:17;;;;;;;14.77;12.77;;;4.70;99.90;;;-141.84;99.34;97146.31;5021878;28;20221;-60
2024/03/12 05:07:46;;;;;;;15.80;12.00;;;4.70;99.90;;;-141.84;99.29;96881.06;5019740;28;20244;-60
2024/03/12 05:10:16;;;;;;;15.77;12.33;;;4.60;99.90;;;-141.84;100.00;99003.56;5019771;28;20262;-60
2024/03/12 05:12:45;;;;;;;16.53;11.90;;;4.60;99.90;;;-141.84;100.00;99268.97;5020308;28;20204;-59
2024/03/12 05:15:13;;;;;;;17.80;12.13;;;4.60;99.90;;;-141.84;99.29;96881.06;5022777;28;20784;-61
2024/03/12 05:17:42;;;;;;;15.13;11.80;;;4.60;99.90;;;-141.84;97.99;94759.69;5021797;28;20228;-60
2024/03/12 05:20:14;;;;;;;13.83;11.93;;;4.60;99.90;;;-141.84;98.83;95289.94;5019972;28;20890;-60
2024/03/12 05:22:42;;;;;;;13.70;11.97;;;4.60;99.90;;;-141.84;100.00;99534.38;5019558;28;20226;-59
2024/03/12 05:25:19;;;;;;;15.80;11.80;;;4.60;99.90;;;-141.84;100.00;102189.38;5019373;28;20260;-60
2024/03/12 05:27:50;;;;;;;14.13;11.80;;;4.60;99.90;;;-141.84;100.00;102455.00;5026794;28;20198;-60
2024/03/12 05:30:20;;;;;;;14.33;11.87;;;4.50;99.90;;;-141.84;100.00;99799.78;5019578;28;20263;-59
2024/03/12 05:32:49;;;;;;;15.00;12.77;;;4.50;99.90;;;-141.84;100.00;99268.97;5020311;28;20229;-61
2024/03/12 05:35:20;;;;;;;14.67;11.63;;;4.50;99.90;;;-141.84;100.00;102189.38;5025582;28;20721;-63
2024/03/12 05:38:07;;;;;;;16.63;12.20;;;4.50;99.90;;;-141.84;100.00;102455.00;5016562;28;20229;-59
2024/03/12 05:40:57;;;;;;;13.50;11.63;;;4.50;99.90;;;-141.84;100.00;102455.00;5003306;28;20282;-60
2024/03/12 05:49:02;;;;;;;15.00;12.13;;;4.60;99.90;;;-141.84;97.31;92109.53;5019212;28;20292;-60
2024/03/12 05:51:31;;;;;;;14.90;11.30;;;4.60;99.90;;;-141.84;98.31;93964.47;5019477;28;20206;-60
2024/03/12 05:54:00;;;;;;;13.97;10.97;;;4.70;99.90;;;-141.84;100.00;99268.97;5013648;28;20237;-60
2024/03/12 05:56:30;;;;;;;12.37;10.80;;;4.60;99.90;;;-141.84;100.00;100596.16;5020580;28;20260;-60
2024/03/12 05:59:00;;;;;;;14.67;11.07;;;4.60;99.90;;;-141.84;98.42;95289.94;5021061;28;20718;-61
2024/03/12 06:01:30;;;;;;;12.97;10.23;;;4.70;99.90;;;-141.84;98.55;95024.81;5021322;28;20271;-59
2024/03/12 06:04:02;;;;;;;12.73;10.13;;;4.70;99.90;;;-141.84;94.06;83640.72;5023827;28;20324;-61
2024/03/12 06:06:34;;;;;;;11.63;10.43;;;4.80;99.90;;;-141.84;94.74;84169.50;5023026;28;20555;-60
2024/03/12 06:09:02;;;;;;;12.70;9.67;;;4.80;99.90;;;-141.84;94.23;83640.72;5025365;28;20572;-61
2024/03/12 06:11:34;;;;;;;11.93;9.10;;;4.80;99.90;;;-141.84;94.12;83112.00;5027143;28;20238;-61
2024/03/12 06:14:05;;;;;;;12.17;10.30;;;4.80;99.90;;;-141.84;89.04;65703.56;5018637;28;20229;-60
2024/03/12 06:16:34;;;;;;;14.20;9.37;;;5.00;99.90;;;-141.84;88.48;58078.34;5028127;28;20312;-61
2024/03/12 06:19:02;;;;;;;12.10;10.17;;;5.00;99.90;;;-141.84;90.77;68863.09;5027389;28;20910;-61
2024/03/12 06:21:32;;;;;;;13.13;9.70;;;5.00;99.90;;;-141.84;91.85;74398.31;5031794;28;20224;-61
2024/03/12 06:24:00;;;;;;;13.37;10.50;;;5.00;99.90;;;-141.84;90.21;69653.38;5022690;28;20225;-60
2024/03/12 06:26:29;;;;;;;11.30;9.40;;;5.10;99.90;;;-141.84;90.71;69126.50;5024444;28;20236;-59
2024/03/12 06:28:58;;;;;;;15.37;11.10;;;5.10;99.90;;;-141.84;91.94;74398.31;5018894;28;20224;-59
2024/03/12 06:31:31;;;;;;;10.83;9.73;;;5.10;99.90;;;-141.84;90.05;68336.31;5023313;28;20228;-61
2024/03/12 06:34:00;;;;;;;10.27;8.33;;;5.30;99.90;;;-141.84;90.26;69126.50;5028800;28;20667;-60
2024/03/12 06:36:37;;;;;;;12.90;9.70;;;5.30;99.90;;;-141.84;88.86;63861.66;5029745;28;20205;-60
2024/03/12 06:39:06;;;;;;;12.87;9.10;;;5.40;99.90;;;-141.84;83.44;28923.34;5056587;28;20670;-60
2024/03/12 06:41:41;;;;;;;10.07;8.87;;;5.60;99.90;;;-141.84;84.44;33454.44;5019321;28;20217;-61
2024/03/12 06:44:15;;;;;;;10.67;8.80;;;5.60;99.90;;;-141.84;82.67;28721.66;5055059;28;20235;-50
2024/03/12 06:46:45;;;;;;;9.60;7.83;;;5.70;99.90;;;-141.84;80.25;20061.78;5047703;28;20241;-52
2024/03/12 06:49:14;;;;;;;12.10;8.67;;;5.90;99.90;;;-141.84;79.09;19222.47;5028891;28;20279;-51
2024/03/12 06:51:47;;;;;;;8.90;7.83;;;6.00;99.90;;;-141.84;80.01;19695.97;5026477;28;20717;-52
2024/03/12 06:54:21;;;;;;;11.13;7.83;;;6.10;99.90;;;-141.84;79.42;19315.94;5027075;28;20190;-52
2024/03/12 06:56:55;;;;;;;8.63;7.37;;;6.20;99.90;;;-141.84;77.16;18621.03;5026813;28;20797;-54
2024/03/12 06:59:24;;;;;;;9.03;7.63;;;6.40;99.90;;;-141.84;75.54;18403.63;5032733;28;20218;-51
2024/03/12 07:01:55;;;;;;;11.40;7.60;;;6.50;99.90;;;-141.84;71.18;18261.44;5027819;28;20221;-52
2024/03/12 07:04:25;;;;;;;15.00;8.10;;;6.70;99.90;;;-141.84;71.73;18318.31;5022476;28;20859;-51
2024/03/12 07:06:54;;;;;;;8.53;7.03;;;6.80;99.90;;;-141.84;71.69;18324.41;5017640;28;20226;-51
2024/03/12 07:09:26;;;;;;;8.77;6.80;;;6.80;99.90;;;-141.84;71.47;18342.69;5023859;28;20207;-52
2024/03/12 07:11:58;;;;;;;8.50;7.17;;;6.80;99.90;;;-141.84;71.46;18306.13;5022594;28;20685;-54
2024/03/12 07:14:32;;;;;;;9.20;7.23;;;6.90;99.90;;;-141.84;71.28;18314.25;5022183;28;20234;-50
2024/03/12 07:17:01;;;;;;;9.90;6.47;;;6.90;99.90;;;-141.84;71.32;18340.66;5027720;28;20257;-52
2024/03/12 07:19:30;;;;;;;8.00;6.90;;;6.90;99.90;;;-141.84;70.18;18336.59;5028366;28;20221;-53
2024/03/12 07:21:59;;;;;;;7.60;6.80;;;7.00;99.90;;;-141.84;70.26;18348.78;5015883;28;20230;-52
2024/03/12 07:24:30;;;;;;;7.27;6.30;;;7.10;99.90;;;-141.84;70.01;18356.91;5022311;28;20281;-53
2024/03/12 07:26:59;;;;;;;8.60;6.83;;;7.20;99.90;;;-141.84;68.84;18350.81;4987783;28;20225;-48
2024/03/12 07:29:27;;;;;;;7.67;6.47;;;7.30;99.90;;;-141.84;68.13;18379.25;5045592;28;20595;-53
2024/03/12 07:31:56;;;;;;;7.57;6.53;;;7.50;99.90;;;-141.84;68.20;18385.34;5048806;28;20250;-51
2024/03/12 07:34:25;;;;;;;10.40;6.60;;;7.60;99.90;;;-141.84;66.46;18391.44;5034608;28;20297;-53
2024/03/12 07:36:54;;;;;;;8.87;6.40;;;7.70;99.90;;;-141.84;66.04;18395.50;5018963;28;20208;-61
2024/03/12 07:39:26;;;;;;;9.17;6.73;;;7.80;99.90;;;-141.84;66.49;18381.28;5033248;28;20712;-61
2024/03/12 07:41:59;;;;;;;9.17;6.90;;;7.80;99.90;;;-141.84;65.68;18399.56;5043789;28;20290;-61
2024/03/12 07:44:28;;;;;;;7.87;6.80;;;7.90;99.90;;;-141.84;65.82;18442.25;5026005;28;20296;-60
2024/03/12 07:46:56;;;;;;;8.70;6.40;;;8.00;99.90;;;-141.84;65.39;18440.22;5029134;28;20222;-62
2024/03/12 07:49:26;;;;;;;8.47;7.17;;;8.10;99.90;;;-141.84;65.25;18425.97;5022105;28;20222;-60
2024/03/12 07:51:55;;;;;;;7.27;6.53;;;8.20;99.90;;;-141.84;64.57;18472.72;5025566;28;20230;-62
2024/03/12 07:54:23;;;;;;;7.40;6.33;;;8.30;99.90;;;-141.84;63.63;18466.63;5024551;28;20217;-61
2024/03/12 07:56:51;;;;;;;6.87;6.17;;;8.50;99.90;;;-141.84;62.72;18474.75;5014739;28;20626;-56
2024/03/12 07:59:22;;;;;;;6.60;5.77;;;8.60;99.90;;;-141.84;61.13;18484.91;5019948;28;20288;-59
2024/03/12 08:01:52;;;;;;;9.03;6.73;;;8.80;99.90;;;-141.84;61.38;18486.94;5022912;28;20694;-60
2024/03/12 08:04:22;;;;;;;6.73;6.03;;;8.90;99.90;;;-141.84;61.13;18466.63;5021881;28;20249;-59
2024/03/12 08:06:51;;;;;;;7.37;6.53;;;8.90;99.90;;;-141.84;60.99;18521.47;5028127;28;20281;-61
2024/03/12 08:09:21;;;;;;;7.03;5.87;;;9.00;99.90;;;-141.84;60.52;18537.72;5022073;28;20260;-60
2024/03/12 08:11:50;;;;;;;6.93;6.00;;;9.20;99.90;;;-141.84;60.07;18533.66;5018182;28;20595;-62
2024/03/12 08:14:20;;;;;;;6.87;6.17;;;9.20;99.90;;;-141.84;59.45;18537.72;5018382;28;20762;-61
2024/03/12 08:16:49;;;;;;;6.73;5.90;;;9.30;99.90;;;-141.84;58.44;18576.31;5025707;28;20230;-62
2024/03/12 08:19:17;;;;;;;7.50;6.47;;;9.40;99.90;;;-141.84;58.24;18584.47;5022248;28;20253;-63
2024/03/12 08:21:46;;;;;;;8.37;6.30;;;9.50;99.90;;;-141.84;57.80;18572.25;5024431;28;20198;-62
2024/03/12 08:24:16;;;;;;;6.70;6.00;;;9.60;99.90;;;-141.84;57.69;18602.75;5028593;28;20202;-61
2024/03/12 08:26:44;;;;;;;6.53;5.63;;;9.70;99.90;;;-141.84;57.26;18631.19;5019039;28;20233;-62
2024/03/12 08:29:15;;;;;;;7.00;5.20;;;9.80;99.90;;;-141.84;57.32;18606.81;5025548;28;20230;-62
2024/03/12 08:31:43;;;;;;;6.40;5.20;;;10.00;99.90;;;-141.84;57.02;18602.75;5024695;28;20225;-63
2024/03/12 08:34:26;;;;;;;7.90;5.23;;;10.10;99.90;;;-141.84;56.28;18635.25;5021121;28;20253;-61
2024/03/12 08:36:56;;;;;;;7.07;4.90;;;10.10;99.90;;;-141.84;55.56;18667.75;5020674;28;20233;-60
2024/03/12 08:39:30;;;;;;;8.50;5.23;;;10.20;99.90;;;-141.84;55.67;18651.50;5024201;28;20252;-62
2024/03/12 08:42:00;;;;;;;6.57;5.20;;;10.30;99.90;;;-141.84;54.87;18651.50;5043973;28;20210;-63
2024/03/12 08:44:28;;;;;;;6.73;4.80;;;10.50;99.90;;;-141.84;54.79;18688.06;5049166;28;20237;-63
2024/03/12 08:46:57;;;;;;;7.03;5.00;;;10.50;99.90;;;-141.84;54.43;18663.69;5031259;28;20214;-60
2024/03/12 08:49:26;;;;;;;5.03;4.53;;;10.60;99.90;;;-141.84;53.64;18738.88;5024211;28;20703;-61
2024/03/12 08:51:55;;;;;;;6.13;4.03;;;10.80;99.90;;;-141.84;53.92;18679.94;5020939;28;20399;-61
2024/03/12 08:54:23;;;;;;;6.20;4.63;;;10.80;99.90;;;-141.84;53.14;18718.56;5017252;28;20233;-61
2024/03/12 08:56:53;;;;;;;5.23;4.43;;;11.00;99.90;;;-141.84;52.93;18724.66;5020507;28;20246;-62
2024/03/12 08:59:21;;;;;;;5.27;4.37;;;11.00;99.90;;;-141.84;53.03;18724.66;5023888;28;20260;-54
2024/03/12 09:01:50;;;;;;;5.80;4.23;;;11.10;99.90;;;-141.84;52.21;18763.25;5022722;28;20639;-52
2024/03/12 09:04:20;;;;;;;4.60;4.20;;;11.20;99.90;;;-141.84;52.39;18726.69;5018544;28;20219;-55
2024/03/12 09:06:48;;;;;;;4.87;4.23;;;11.20;99.90;;;-141.84;52.36;18742.94;5021718;28;20290;-55
2024/03/12 09:09:18;;;;;;;7.17;4.77;;;11.20;99.90;;;-141.84;51.80;18781.53;5022314;28;20221;-52
2024/03/12 09:11:47;;;;;;;5.73;4.87;;;11.40;99.90;;;-141.84;52.60;18771.38;4996128;28;20226;-50
2024/03/12 09:14:17;;;;;;;5.03;4.53;;;11.40;99.90;;;-141.84;51.93;18789.66;5039442;28;20222;-50
2024/03/12 09:16:45;;;;;;;5.30;4.80;;;11.60;99.90;;;-141.84;51.16;18809.97;5040516;28;20706;-55
2024/03/12 09:19:15;;;;;;;5.27;4.33;;;11.60;99.90;;;-141.84;51.37;18822.19;5049830;28;20225;-52
2024/03/12 09:21:43;;;;;;;5.40;4.20;;;11.70;99.90;;;-141.84;51.11;18779.50;5042820;28;20232;-53
2024/03/12 09:24:11;;;;;;;5.00;4.50;;;11.70;99.90;;;-141.84;50.74;18793.72;5045860;28;20201;-52
2024/03/12 09:26:39;;;;;;;5.20;4.35;;;11.80;99.90;;;-141.84;49.98;18840.47;5041904;28;20256;-54
2024/03/12 09:29:08;;;;;;;7.23;5.00;;;11.90;99.90;;;-141.84;50.21;18838.44;5042323;28;20221;-53
2024/03/12 09:31:39;;;;;;;6.00;5.40;;;11.90;99.90;;;-141.84;50.24;18826.25;5043194;28;20275;-53
2024/03/12 09:34:07;;;;;;;6.70;5.20;;;11.80;99.90;;;-141.84;50.26;18850.63;5038845;28;20595;-49
2024/03/12 09:36:35;;;;;;;6.27;5.67;;;11.90;99.90;;;-141.84;50.62;18860.78;5038872;28;20206;-51
2024/03/12 09:39:10;;;;;;;6.20;5.30;;;11.90;99.90;;;-141.84;50.95;18795.75;5041057;28;20222;-63
2024/03/12 09:41:44;;;;;;;6.75;6.05;;;11.90;99.90;;;-141.84;51.33;18842.50;5039054;28;20385;-61
2024/03/12 09:44:13;;;;;;;6.07;5.50;;;11.90;99.90;;;-141.84;51.21;18838.44;5043429;28;20229;-62
2024/03/12 09:46:45;;;;;;;6.43;5.82;;;11.90;99.90;;;-141.84;50.78;18864.84;5041563;28;20225;-62
2024/03/12 09:49:18;;;;;;;6.07;5.47;;;12.00;99.90;;;-141.84;50.09;18856.72;5046672;28;20287;-51
2024/03/12 09:51:46;;;;;;;6.35;5.65;;;12.10;99.90;;;-141.84;49.48;18868.91;5043974;28;20278;-52
2024/03/12 09:54:15;;;;;;;6.47;5.87;;;12.20;99.90;;;-141.84;48.79;18891.25;5047000;28;20197;-52
2024/03/12 09:56:43;;;;;;;9.43;6.20;;;12.30;99.90;;;-141.84;49.06;18917.66;5048455;28;20848;-54
2024/03/12 09:59:11;;;;;;;7.13;6.03;;;12.40;99.90;;;-141.84;48.52;18948.16;5042247;28;20754;-55
2024/03/12 10:01:40;;;;;;;6.55;5.95;;;12.70;99.90;;;-141.84;47.75;18976.59;5043121;28;20218;-54
2024/03/12 10:04:09;;;;;;;8.73;6.07;;;12.90;99.90;;;-141.84;47.91;18968.47;5047849;28;20652;-61
2024/03/12 10:06:38;;;;;;;7.45;6.30;;;12.90;99.90;;;-141.84;48.72;18868.91;5045750;28;20654;-61
2024/03/12 10:09:10;;;;;;;6.82;6.13;;;12.60;99.90;;;-141.84;49.38;18870.94;5049187;28;20554;-62
2024/03/12 10:11:44;;;;;;;6.50;5.82;;;12.40;99.90;;;-141.84;49.24;18893.28;5043839;28;20236;-62
2024/03/12 10:14:17;;;;;;;7.13;6.43;;;12.40;99.90;;;-141.84;49.67;18875.00;5049075;28;20247;-61
2024/03/12 10:16:45;;;;;;;6.63;5.80;;;12.30;99.90;;;-141.84;49.34;18895.31;5051455;28;20229;-63
2024/03/12 10:19:17;;;;;;;9.45;6.35;;;12.30;99.90;;;-141.84;49.07;18891.25;5040147;28;20701;-61